sensor_id;sensor_type;location;lat;lon;timestamp;P1;durP1;ratioP1;P2;durP2;ratioP2
5730;SDS011;2890;51.950;7.668;2022-11-18T00:01:52;8.23;;;4.67;;
5730;SDS011;2890;51.950;7.668;2022-11-18T00:04:19;7.73;;;5.70;;
5730;SDS011;2890;51.950;7.668;2022-11-18T00:06:46;7.07;;;5.27;;
5730;SDS011;2890;51.950;7.668;2022-11-18T00:09:14;7.07;;;5.27;;
5730;SDS011;2890;51.950;7.668;2022-11-18T00:11:42;8.90;;;4.97;;
5730;SDS011;2890;51.950;7.668;2022-11-18T00:14:27;5.67;;;4.50;;
5730;SDS011;2890;51.950;7.668;2022-11-18T00:16:55;5.80;;;4.47;;
5730;SDS011;2890;51.950;7.668;2022-11-18T00:19:23;8.73;;;4.90;;
5730;SDS011;2890;51.950;7.668;2022-11-18T00:21:50;9.20;;;4.40;;
5730;SDS011;2890;51.950;7.668;2022-11-18T00:24:17;7.03;;;5.20;;
5730;SDS011;2890;51.950;7.668;2022-11-18T00:26:46;6.37;;;4.87;;
5730;SDS011;2890;51.950;7.668;2022-11-18T00:29:14;7.07;;;5.10;;
5730;SDS011;2890;51.950;7.668;2022-11-18T00:31:41;10.10;;;5.40;;
5730;SDS011;2890;51.950;7.668;2022-11-18T00:34:09;7.23;;;4.30;;
5730;SDS011;2890;51.950;7.668;2022-11-18T00:36:37;5.70;;;4.60;;
5730;SDS011;2890;51.950;7.668;2022-11-18T00:39:04;12.23;;;7.87;;
5730;SDS011;2890;51.950;7.668;2022-11-18T00:41:31;5.87;;;4.33;;
5730;SDS011;2890;51.950;7.668;2022-11-18T00:44:13;6.30;;;4.63;;
5730;SDS011;2890;51.950;7.668;2022-11-18T00:46:41;9.10;;;6.53;;
5730;SDS011;2890;51.950;7.668;2022-11-18T00:49:09;8.53;;;4.90;;
5730;SDS011;2890;51.950;7.668;2022-11-18T00:51:36;9.07;;;4.60;;
5730;SDS011;2890;51.950;7.668;2022-11-18T00:54:03;7.03;;;4.47;;
5730;SDS011;2890;51.950;7.668;2022-11-18T00:56:31;7.23;;;4.20;;
5730;SDS011;2890;51.950;7.668;2022-11-18T00:58:58;9.90;;;4.80;;
5730;SDS011;2890;51.950;7.668;2022-11-18T01:01:26;6.20;;;4.27;;
5730;SDS011;2890;51.950;7.668;2022-11-18T01:03:53;4.73;;;4.20;;
5730;SDS011;2890;51.950;7.668;2022-11-18T01:06:20;8.20;;;4.43;;
5730;SDS011;2890;51.950;7.668;2022-11-18T01:08:48;8.83;;;4.07;;
5730;SDS011;2890;51.950;7.668;2022-11-18T01:11:15;8.37;;;4.00;;
5730;SDS011;2890;51.950;7.668;2022-11-18T01:14:00;6.47;;;4.50;;
5730;SDS011;2890;51.950;7.668;2022-11-18T01:16:29;7.33;;;4.37;;
5730;SDS011;2890;51.950;7.668;2022-11-18T01:18:56;5.57;;;4.23;;
5730;SDS011;2890;51.950;7.668;2022-11-18T01:21:23;8.47;;;3.97;;
5730;SDS011;2890;51.950;7.668;2022-11-18T01:23:50;5.83;;;4.30;;
5730;SDS011;2890;51.950;7.668;2022-11-18T01:26:17;6.30;;;4.43;;
5730;SDS011;2890;51.950;7.668;2022-11-18T01:28:45;5.93;;;4.10;;
5730;SDS011;2890;51.950;7.668;2022-11-18T01:31:12;6.60;;;4.33;;
5730;SDS011;2890;51.950;7.668;2022-11-18T01:33:41;6.60;;;4.87;;
5730;SDS011;2890;51.950;7.668;2022-11-18T01:36:15;5.50;;;4.60;;
5730;SDS011;2890;51.950;7.668;2022-11-18T01:38:43;7.67;;;5.10;;
5730;SDS011;2890;51.950;7.668;2022-11-18T01:41:10;7.83;;;4.83;;
5730;SDS011;2890;51.950;7.668;2022-11-18T01:43:47;5.03;;;4.30;;
5730;SDS011;2890;51.950;7.668;2022-11-18T01:46:15;5.90;;;4.03;;
5730;SDS011;2890;51.950;7.668;2022-11-18T01:48:44;6.43;;;4.23;;
5730;SDS011;2890;51.950;7.668;2022-11-18T01:51:13;5.60;;;3.50;;
5730;SDS011;2890;51.950;7.668;2022-11-18T01:53:42;6.20;;;4.03;;
5730;SDS011;2890;51.950;7.668;2022-11-18T01:56:12;8.20;;;4.00;;
5730;SDS011;2890;51.950;7.668;2022-11-18T01:58:41;9.43;;;4.90;;
5730;SDS011;2890;51.950;7.668;2022-11-18T02:01:09;5.83;;;3.83;;
5730;SDS011;2890;51.950;7.668;2022-11-18T02:03:36;6.30;;;4.80;;
5730;SDS011;2890;51.950;7.668;2022-11-18T02:06:05;6.60;;;4.57;;
5730;SDS011;2890;51.950;7.668;2022-11-18T02:08:32;6.17;;;4.47;;
5730;SDS011;2890;51.950;7.668;2022-11-18T02:11:01;5.93;;;4.30;;
5730;SDS011;2890;51.950;7.668;2022-11-18T02:13:28;7.23;;;4.47;;
5730;SDS011;2890;51.950;7.668;2022-11-18T02:15:59;5.60;;;4.53;;
5730;SDS011;2890;51.950;7.668;2022-11-18T02:18:34;7.90;;;4.07;;
5730;SDS011;2890;51.950;7.668;2022-11-18T02:21:10;6.10;;;4.43;;
5730;SDS011;2890;51.950;7.668;2022-11-18T02:23:51;6.80;;;4.43;;
5730;SDS011;2890;51.950;7.668;2022-11-18T02:26:32;8.00;;;4.80;;
5730;SDS011;2890;51.950;7.668;2022-11-18T02:29:05;5.77;;;4.00;;
5730;SDS011;2890;51.950;7.668;2022-11-18T02:31:34;5.30;;;4.20;;
5730;SDS011;2890;51.950;7.668;2022-11-18T02:34:05;5.30;;;4.10;;
5730;SDS011;2890;51.950;7.668;2022-11-18T02:36:37;7.10;;;4.43;;
5730;SDS011;2890;51.950;7.668;2022-11-18T02:39:06;8.37;;;4.50;;
5730;SDS011;2890;51.950;7.668;2022-11-18T02:41:34;7.87;;;4.30;;
5730;SDS011;2890;51.950;7.668;2022-11-18T02:44:03;6.93;;;4.20;;
5730;SDS011;2890;51.950;7.668;2022-11-18T02:46:33;6.27;;;4.20;;
5730;SDS011;2890;51.950;7.668;2022-11-18T02:49:02;7.40;;;4.50;;
5730;SDS011;2890;51.950;7.668;2022-11-18T02:51:30;5.43;;;4.60;;
5730;SDS011;2890;51.950;7.668;2022-11-18T02:53:59;5.30;;;4.30;;
5730;SDS011;2890;51.950;7.668;2022-11-18T02:56:27;4.87;;;4.13;;
5730;SDS011;2890;51.950;7.668;2022-11-18T02:58:54;8.33;;;4.53;;
5730;SDS011;2890;51.950;7.668;2022-11-18T03:01:23;6.53;;;4.83;;
5730;SDS011;2890;51.950;7.668;2022-11-18T03:03:52;6.03;;;4.07;;
5730;SDS011;2890;51.950;7.668;2022-11-18T03:06:23;6.27;;;4.43;;
5730;SDS011;2890;51.950;7.668;2022-11-18T03:08:54;7.83;;;4.60;;
5730;SDS011;2890;51.950;7.668;2022-11-18T03:11:25;5.70;;;3.97;;
5730;SDS011;2890;51.950;7.668;2022-11-18T03:13:58;8.20;;;4.80;;
5730;SDS011;2890;51.950;7.668;2022-11-18T03:16:29;6.87;;;4.93;;
5730;SDS011;2890;51.950;7.668;2022-11-18T03:19:01;6.73;;;4.53;;
5730;SDS011;2890;51.950;7.668;2022-11-18T03:21:32;6.27;;;4.60;;
5730;SDS011;2890;51.950;7.668;2022-11-18T03:24:04;6.17;;;4.83;;
5730;SDS011;2890;51.950;7.668;2022-11-18T03:26:34;4.73;;;4.17;;
5730;SDS011;2890;51.950;7.668;2022-11-18T03:29:03;6.27;;;4.50;;
5730;SDS011;2890;51.950;7.668;2022-11-18T03:31:32;5.47;;;4.57;;
5730;SDS011;2890;51.950;7.668;2022-11-18T03:34:04;12.30;;;4.77;;
5730;SDS011;2890;51.950;7.668;2022-11-18T03:36:32;5.37;;;4.77;;
5730;SDS011;2890;51.950;7.668;2022-11-18T03:39:02;6.27;;;5.37;;
5730;SDS011;2890;51.950;7.668;2022-11-18T03:41:30;7.70;;;5.50;;
5730;SDS011;2890;51.950;7.668;2022-11-18T03:44:00;9.57;;;5.17;;
5730;SDS011;2890;51.950;7.668;2022-11-18T03:46:32;8.00;;;6.00;;
5730;SDS011;2890;51.950;7.668;2022-11-18T03:49:01;9.70;;;5.67;;
5730;SDS011;2890;51.950;7.668;2022-11-18T03:51:32;6.77;;;5.47;;
5730;SDS011;2890;51.950;7.668;2022-11-18T03:54:02;8.00;;;5.33;;
5730;SDS011;2890;51.950;7.668;2022-11-18T03:56:33;8.67;;;5.70;;
5730;SDS011;2890;51.950;7.668;2022-11-18T03:59:03;9.37;;;6.13;;
5730;SDS011;2890;51.950;7.668;2022-11-18T04:01:32;8.27;;;5.93;;
5730;SDS011;2890;51.950;7.668;2022-11-18T04:04:00;7.87;;;6.30;;
5730;SDS011;2890;51.950;7.668;2022-11-18T04:06:29;8.33;;;5.77;;
5730;SDS011;2890;51.950;7.668;2022-11-18T04:08:58;9.73;;;5.93;;
5730;SDS011;2890;51.950;7.668;2022-11-18T04:11:27;10.00;;;6.43;;
5730;SDS011;2890;51.950;7.668;2022-11-18T04:14:13;7.83;;;6.33;;
5730;SDS011;2890;51.950;7.668;2022-11-18T04:16:42;9.17;;;6.57;;
5730;SDS011;2890;51.950;7.668;2022-11-18T04:19:10;7.70;;;6.03;;
5730;SDS011;2890;51.950;7.668;2022-11-18T04:21:37;6.87;;;5.93;;
5730;SDS011;2890;51.950;7.668;2022-11-18T04:24:06;8.27;;;6.07;;
5730;SDS011;2890;51.950;7.668;2022-11-18T04:26:33;9.40;;;7.23;;
5730;SDS011;2890;51.950;7.668;2022-11-18T04:29:00;8.57;;;6.93;;
5730;SDS011;2890;51.950;7.668;2022-11-18T04:31:27;8.67;;;6.77;;
5730;SDS011;2890;51.950;7.668;2022-11-18T04:33:54;10.57;;;6.83;;
5730;SDS011;2890;51.950;7.668;2022-11-18T04:36:21;10.87;;;6.70;;
5730;SDS011;2890;51.950;7.668;2022-11-18T04:38:49;9.67;;;7.77;;
5730;SDS011;2890;51.950;7.668;2022-11-18T04:41:17;8.93;;;6.93;;
5730;SDS011;2890;51.950;7.668;2022-11-18T04:43:44;9.80;;;6.70;;
5730;SDS011;2890;51.950;7.668;2022-11-18T04:46:11;7.63;;;6.80;;
5730;SDS011;2890;51.950;7.668;2022-11-18T04:48:38;8.97;;;7.10;;
5730;SDS011;2890;51.950;7.668;2022-11-18T04:51:05;11.37;;;7.50;;
5730;SDS011;2890;51.950;7.668;2022-11-18T04:53:32;10.03;;;7.97;;
5730;SDS011;2890;51.950;7.668;2022-11-18T04:56:03;10.57;;;7.60;;
5730;SDS011;2890;51.950;7.668;2022-11-18T04:58:31;10.37;;;7.73;;
5730;SDS011;2890;51.950;7.668;2022-11-18T05:00:58;10.90;;;7.43;;
5730;SDS011;2890;51.950;7.668;2022-11-18T05:03:25;10.70;;;7.73;;
5730;SDS011;2890;51.950;7.668;2022-11-18T05:05:53;14.43;;;7.67;;
5730;SDS011;2890;51.950;7.668;2022-11-18T05:08:20;11.63;;;7.77;;
5730;SDS011;2890;51.950;7.668;2022-11-18T05:10:47;10.90;;;7.73;;
5730;SDS011;2890;51.950;7.668;2022-11-18T05:13:14;15.10;;;7.30;;
5730;SDS011;2890;51.950;7.668;2022-11-18T05:15:41;10.37;;;8.17;;
5730;SDS011;2890;51.950;7.668;2022-11-18T05:18:09;9.20;;;6.83;;
5730;SDS011;2890;51.950;7.668;2022-11-18T05:20:36;11.20;;;7.47;;
5730;SDS011;2890;51.950;7.668;2022-11-18T05:23:03;9.20;;;7.87;;
5730;SDS011;2890;51.950;7.668;2022-11-18T05:25:30;11.73;;;8.77;;
5730;SDS011;2890;51.950;7.668;2022-11-18T05:27:58;11.47;;;8.63;;
5730;SDS011;2890;51.950;7.668;2022-11-18T05:30:25;17.13;;;10.67;;
5730;SDS011;2890;51.950;7.668;2022-11-18T05:32:53;12.37;;;8.40;;
5730;SDS011;2890;51.950;7.668;2022-11-18T05:35:20;19.23;;;8.73;;
5730;SDS011;2890;51.950;7.668;2022-11-18T05:37:47;14.00;;;8.63;;
5730;SDS011;2890;51.950;7.668;2022-11-18T05:40:15;14.27;;;9.07;;
5730;SDS011;2890;51.950;7.668;2022-11-18T05:42:42;11.90;;;8.93;;
5730;SDS011;2890;51.950;7.668;2022-11-18T05:45:26;13.73;;;8.90;;
5730;SDS011;2890;51.950;7.668;2022-11-18T05:47:55;11.60;;;8.60;;
5730;SDS011;2890;51.950;7.668;2022-11-18T05:50:25;10.03;;;7.63;;
5730;SDS011;2890;51.950;7.668;2022-11-18T05:52:52;9.93;;;7.73;;
5730;SDS011;2890;51.950;7.668;2022-11-18T05:55:19;12.10;;;8.60;;
5730;SDS011;2890;51.950;7.668;2022-11-18T05:57:48;10.83;;;9.13;;
5730;SDS011;2890;51.950;7.668;2022-11-18T06:00:15;13.77;;;8.03;;
5730;SDS011;2890;51.950;7.668;2022-11-18T06:02:43;12.17;;;8.73;;
5730;SDS011;2890;51.950;7.668;2022-11-18T06:05:12;10.63;;;8.30;;
5730;SDS011;2890;51.950;7.668;2022-11-18T06:07:40;11.80;;;8.23;;
5730;SDS011;2890;51.950;7.668;2022-11-18T06:10:10;10.70;;;7.93;;
5730;SDS011;2890;51.950;7.668;2022-11-18T06:12:38;13.83;;;8.83;;
5730;SDS011;2890;51.950;7.668;2022-11-18T06:15:08;13.87;;;8.30;;
5730;SDS011;2890;51.950;7.668;2022-11-18T06:17:38;12.00;;;7.97;;
5730;SDS011;2890;51.950;7.668;2022-11-18T06:20:08;16.20;;;10.10;;
5730;SDS011;2890;51.950;7.668;2022-11-18T06:22:37;11.33;;;8.27;;
5730;SDS011;2890;51.950;7.668;2022-11-18T06:25:04;11.73;;;8.93;;
5730;SDS011;2890;51.950;7.668;2022-11-18T06:27:31;12.40;;;8.27;;
5730;SDS011;2890;51.950;7.668;2022-11-18T06:30:00;14.10;;;8.60;;
5730;SDS011;2890;51.950;7.668;2022-11-18T06:32:27;12.07;;;9.17;;
5730;SDS011;2890;51.950;7.668;2022-11-18T06:34:54;12.97;;;9.17;;
5730;SDS011;2890;51.950;7.668;2022-11-18T06:37:21;11.80;;;8.73;;
5730;SDS011;2890;51.950;7.668;2022-11-18T06:39:49;13.70;;;8.87;;
5730;SDS011;2890;51.950;7.668;2022-11-18T06:42:16;10.70;;;8.00;;
5730;SDS011;2890;51.950;7.668;2022-11-18T06:44:57;11.97;;;8.43;;
5730;SDS011;2890;51.950;7.668;2022-11-18T06:47:26;12.90;;;8.93;;
5730;SDS011;2890;51.950;7.668;2022-11-18T06:49:53;13.37;;;8.57;;
5730;SDS011;2890;51.950;7.668;2022-11-18T06:52:20;12.97;;;8.87;;
5730;SDS011;2890;51.950;7.668;2022-11-18T06:54:47;13.07;;;10.07;;
5730;SDS011;2890;51.950;7.668;2022-11-18T06:57:15;11.90;;;8.93;;
5730;SDS011;2890;51.950;7.668;2022-11-18T06:59:43;16.70;;;9.90;;
5730;SDS011;2890;51.950;7.668;2022-11-18T07:02:10;18.73;;;10.07;;
5730;SDS011;2890;51.950;7.668;2022-11-18T07:04:37;18.77;;;11.03;;
5730;SDS011;2890;51.950;7.668;2022-11-18T07:07:11;15.40;;;10.60;;
5730;SDS011;2890;51.950;7.668;2022-11-18T07:09:46;12.33;;;9.33;;
5730;SDS011;2890;51.950;7.668;2022-11-18T07:12:13;14.47;;;10.00;;
5730;SDS011;2890;51.950;7.668;2022-11-18T07:14:42;15.17;;;9.57;;
5730;SDS011;2890;51.950;7.668;2022-11-18T07:17:09;16.87;;;10.33;;
5730;SDS011;2890;51.950;7.668;2022-11-18T07:19:36;16.23;;;10.10;;
5730;SDS011;2890;51.950;7.668;2022-11-18T07:22:04;15.27;;;10.77;;
5730;SDS011;2890;51.950;7.668;2022-11-18T07:24:32;18.70;;;10.73;;
5730;SDS011;2890;51.950;7.668;2022-11-18T07:26:59;17.20;;;10.20;;
5730;SDS011;2890;51.950;7.668;2022-11-18T07:29:26;17.33;;;10.80;;
5730;SDS011;2890;51.950;7.668;2022-11-18T07:31:54;24.03;;;11.40;;
5730;SDS011;2890;51.950;7.668;2022-11-18T07:34:22;16.20;;;10.47;;
5730;SDS011;2890;51.950;7.668;2022-11-18T07:36:49;20.43;;;11.47;;
5730;SDS011;2890;51.950;7.668;2022-11-18T07:39:16;19.10;;;11.60;;
5730;SDS011;2890;51.950;7.668;2022-11-18T07:41:43;19.17;;;11.53;;
5730;SDS011;2890;51.950;7.668;2022-11-18T07:44:10;17.07;;;10.67;;
5730;SDS011;2890;51.950;7.668;2022-11-18T07:46:37;26.17;;;12.27;;
5730;SDS011;2890;51.950;7.668;2022-11-18T07:49:06;19.07;;;11.63;;
5730;SDS011;2890;51.950;7.668;2022-11-18T07:51:34;17.90;;;11.70;;
5730;SDS011;2890;51.950;7.668;2022-11-18T07:54:04;18.57;;;11.20;;
5730;SDS011;2890;51.950;7.668;2022-11-18T07:56:31;16.80;;;11.67;;
5730;SDS011;2890;51.950;7.668;2022-11-18T07:58:58;17.77;;;11.20;;
5730;SDS011;2890;51.950;7.668;2022-11-18T08:01:26;21.43;;;13.03;;
5730;SDS011;2890;51.950;7.668;2022-11-18T08:03:54;23.13;;;12.63;;
5730;SDS011;2890;51.950;7.668;2022-11-18T08:06:23;20.87;;;11.40;;
5730;SDS011;2890;51.950;7.668;2022-11-18T08:08:50;22.77;;;12.63;;
5730;SDS011;2890;51.950;7.668;2022-11-18T08:11:18;25.43;;;12.77;;
5730;SDS011;2890;51.950;7.668;2022-11-18T08:13:45;17.23;;;11.83;;
5730;SDS011;2890;51.950;7.668;2022-11-18T08:16:13;23.13;;;13.10;;
5730;SDS011;2890;51.950;7.668;2022-11-18T08:18:40;20.63;;;12.80;;
5730;SDS011;2890;51.950;7.668;2022-11-18T08:21:08;20.00;;;12.13;;
5730;SDS011;2890;51.950;7.668;2022-11-18T08:23:37;20.43;;;12.50;;
5730;SDS011;2890;51.950;7.668;2022-11-18T08:26:05;20.70;;;12.63;;
5730;SDS011;2890;51.950;7.668;2022-11-18T08:28:32;20.07;;;12.30;;
5730;SDS011;2890;51.950;7.668;2022-11-18T08:30:59;19.90;;;11.90;;
5730;SDS011;2890;51.950;7.668;2022-11-18T08:33:26;17.93;;;11.87;;
5730;SDS011;2890;51.950;7.668;2022-11-18T08:35:53;27.67;;;14.83;;
5730;SDS011;2890;51.950;7.668;2022-11-18T08:38:21;21.93;;;12.90;;
5730;SDS011;2890;51.950;7.668;2022-11-18T08:40:49;25.53;;;14.17;;
5730;SDS011;2890;51.950;7.668;2022-11-18T08:43:16;18.67;;;12.03;;
5730;SDS011;2890;51.950;7.668;2022-11-18T08:45:43;18.50;;;12.30;;
5730;SDS011;2890;51.950;7.668;2022-11-18T08:48:10;17.50;;;11.33;;
5730;SDS011;2890;51.950;7.668;2022-11-18T08:50:37;25.40;;;12.73;;
5730;SDS011;2890;51.950;7.668;2022-11-18T08:53:04;18.00;;;11.83;;
5730;SDS011;2890;51.950;7.668;2022-11-18T08:55:31;20.77;;;13.00;;
5730;SDS011;2890;51.950;7.668;2022-11-18T08:58:00;22.30;;;12.77;;
5730;SDS011;2890;51.950;7.668;2022-11-18T09:00:27;20.13;;;12.20;;
5730;SDS011;2890;51.950;7.668;2022-11-18T09:02:54;17.70;;;10.90;;
5730;SDS011;2890;51.950;7.668;2022-11-18T09:05:21;17.43;;;11.67;;
5730;SDS011;2890;51.950;7.668;2022-11-18T09:07:48;18.40;;;11.27;;
5730;SDS011;2890;51.950;7.668;2022-11-18T09:10:15;19.93;;;12.13;;
5730;SDS011;2890;51.950;7.668;2022-11-18T09:12:43;19.27;;;12.10;;
5730;SDS011;2890;51.950;7.668;2022-11-18T09:15:11;20.77;;;12.17;;
5730;SDS011;2890;51.950;7.668;2022-11-18T09:17:38;20.00;;;11.73;;
5730;SDS011;2890;51.950;7.668;2022-11-18T09:20:06;18.17;;;12.40;;
5730;SDS011;2890;51.950;7.668;2022-11-18T09:22:34;18.27;;;11.80;;
5730;SDS011;2890;51.950;7.668;2022-11-18T09:25:01;16.33;;;10.30;;
5730;SDS011;2890;51.950;7.668;2022-11-18T09:27:28;18.90;;;11.33;;
5730;SDS011;2890;51.950;7.668;2022-11-18T09:29:56;18.87;;;11.37;;
5730;SDS011;2890;51.950;7.668;2022-11-18T09:32:24;19.17;;;11.93;;
5730;SDS011;2890;51.950;7.668;2022-11-18T09:34:51;21.47;;;15.73;;
5730;SDS011;2890;51.950;7.668;2022-11-18T09:37:18;18.80;;;10.93;;
5730;SDS011;2890;51.950;7.668;2022-11-18T09:39:46;18.77;;;12.13;;
5730;SDS011;2890;51.950;7.668;2022-11-18T09:42:18;17.07;;;11.20;;
5730;SDS011;2890;51.950;7.668;2022-11-18T09:45:04;19.60;;;12.03;;
5730;SDS011;2890;51.950;7.668;2022-11-18T09:47:33;24.20;;;13.03;;
5730;SDS011;2890;51.950;7.668;2022-11-18T09:50:01;20.20;;;12.07;;
5730;SDS011;2890;51.950;7.668;2022-11-18T09:52:29;16.40;;;10.87;;
5730;SDS011;2890;51.950;7.668;2022-11-18T09:54:58;18.60;;;11.23;;
5730;SDS011;2890;51.950;7.668;2022-11-18T09:57:27;22.13;;;11.30;;
5730;SDS011;2890;51.950;7.668;2022-11-18T09:59:57;20.43;;;12.10;;
5730;SDS011;2890;51.950;7.668;2022-11-18T10:02:28;16.87;;;11.23;;
5730;SDS011;2890;51.950;7.668;2022-11-18T10:04:57;16.90;;;10.83;;
5730;SDS011;2890;51.950;7.668;2022-11-18T10:07:29;17.90;;;10.77;;
5730;SDS011;2890;51.950;7.668;2022-11-18T10:09:58;18.63;;;11.57;;
5730;SDS011;2890;51.950;7.668;2022-11-18T10:12:31;22.93;;;12.07;;
5730;SDS011;2890;51.950;7.668;2022-11-18T10:15:06;20.23;;;13.93;;
5730;SDS011;2890;51.950;7.668;2022-11-18T10:17:43;21.10;;;11.50;;
5730;SDS011;2890;51.950;7.668;2022-11-18T10:20:22;19.60;;;11.67;;
5730;SDS011;2890;51.950;7.668;2022-11-18T10:22:51;22.10;;;11.23;;
5730;SDS011;2890;51.950;7.668;2022-11-18T10:25:20;18.70;;;11.10;;
5730;SDS011;2890;51.950;7.668;2022-11-18T10:27:48;19.63;;;11.13;;
5730;SDS011;2890;51.950;7.668;2022-11-18T10:30:16;22.03;;;11.57;;
5730;SDS011;2890;51.950;7.668;2022-11-18T10:32:57;20.10;;;10.80;;
5730;SDS011;2890;51.950;7.668;2022-11-18T10:35:28;17.80;;;10.63;;
5730;SDS011;2890;51.950;7.668;2022-11-18T10:38:00;16.90;;;11.87;;
5730;SDS011;2890;51.950;7.668;2022-11-18T10:40:29;23.63;;;12.50;;
5730;SDS011;2890;51.950;7.668;2022-11-18T10:42:56;18.17;;;11.17;;
5730;SDS011;2890;51.950;7.668;2022-11-18T10:45:27;21.20;;;12.53;;
5730;SDS011;2890;51.950;7.668;2022-11-18T10:47:59;20.93;;;12.53;;
5730;SDS011;2890;51.950;7.668;2022-11-18T10:50:32;24.43;;;13.07;;
5730;SDS011;2890;51.950;7.668;2022-11-18T10:53:00;19.97;;;12.87;;
5730;SDS011;2890;51.950;7.668;2022-11-18T10:55:28;22.00;;;13.27;;
5730;SDS011;2890;51.950;7.668;2022-11-18T10:57:59;23.60;;;12.67;;
5730;SDS011;2890;51.950;7.668;2022-11-18T11:00:38;22.73;;;13.60;;
5730;SDS011;2890;51.950;7.668;2022-11-18T11:03:22;26.23;;;13.10;;
5730;SDS011;2890;51.950;7.668;2022-11-18T11:08:38;23.00;;;14.17;;
5730;SDS011;2890;51.950;7.668;2022-11-18T11:11:17;22.83;;;13.73;;
5730;SDS011;2890;51.950;7.668;2022-11-18T11:13:50;24.97;;;13.87;;
5730;SDS011;2890;51.950;7.668;2022-11-18T11:16:17;20.93;;;13.23;;
5730;SDS011;2890;51.950;7.668;2022-11-18T11:18:46;23.00;;;14.23;;
5730;SDS011;2890;51.950;7.668;2022-11-18T11:21:17;22.60;;;12.77;;
5730;SDS011;2890;51.950;7.668;2022-11-18T11:23:45;19.73;;;12.63;;
5730;SDS011;2890;51.950;7.668;2022-11-18T11:26:14;27.73;;;14.10;;
5730;SDS011;2890;51.950;7.668;2022-11-18T11:28:43;24.23;;;14.17;;
5730;SDS011;2890;51.950;7.668;2022-11-18T11:31:12;25.83;;;14.50;;
5730;SDS011;2890;51.950;7.668;2022-11-18T11:33:44;21.00;;;13.73;;
5730;SDS011;2890;51.950;7.668;2022-11-18T11:36:21;21.43;;;13.07;;
5730;SDS011;2890;51.950;7.668;2022-11-18T11:38:54;23.47;;;14.97;;
5730;SDS011;2890;51.950;7.668;2022-11-18T11:41:24;25.27;;;14.43;;
5730;SDS011;2890;51.950;7.668;2022-11-18T11:43:58;19.87;;;13.07;;
5730;SDS011;2890;51.950;7.668;2022-11-18T11:46:32;23.53;;;13.67;;
5730;SDS011;2890;51.950;7.668;2022-11-18T11:49:06;21.70;;;12.43;;
5730;SDS011;2890;51.950;7.668;2022-11-18T11:51:39;19.20;;;12.43;;
5730;SDS011;2890;51.950;7.668;2022-11-18T11:54:16;20.13;;;12.77;;
5730;SDS011;2890;51.950;7.668;2022-11-18T11:56:46;19.50;;;12.70;;
5730;SDS011;2890;51.950;7.668;2022-11-18T11:59:17;21.60;;;12.43;;
5730;SDS011;2890;51.950;7.668;2022-11-18T12:01:51;21.37;;;12.40;;
5730;SDS011;2890;51.950;7.668;2022-11-18T12:04:27;19.87;;;11.53;;
5730;SDS011;2890;51.950;7.668;2022-11-18T12:06:56;20.13;;;11.97;;
5730;SDS011;2890;51.950;7.668;2022-11-18T12:09:28;16.47;;;11.00;;
5730;SDS011;2890;51.950;7.668;2022-11-18T12:12:04;17.00;;;10.47;;
5730;SDS011;2890;51.950;7.668;2022-11-18T12:14:54;16.33;;;9.57;;
5730;SDS011;2890;51.950;7.668;2022-11-18T12:17:23;16.23;;;8.77;;
5730;SDS011;2890;51.950;7.668;2022-11-18T12:19:53;13.90;;;9.10;;
5730;SDS011;2890;51.950;7.668;2022-11-18T12:22:20;14.23;;;8.00;;
5730;SDS011;2890;51.950;7.668;2022-11-18T12:24:49;14.43;;;8.33;;
5730;SDS011;2890;51.950;7.668;2022-11-18T12:29:58;8.90;;;6.80;;
5730;SDS011;2890;51.950;7.668;2022-11-18T12:32:31;9.93;;;7.20;;
5730;SDS011;2890;51.950;7.668;2022-11-18T12:35:02;11.50;;;7.63;;
5730;SDS011;2890;51.950;7.668;2022-11-18T12:37:42;11.40;;;7.53;;
5730;SDS011;2890;51.950;7.668;2022-11-18T12:40:11;11.53;;;7.40;;
5730;SDS011;2890;51.950;7.668;2022-11-18T12:42:56;9.47;;;7.17;;
5730;SDS011;2890;51.950;7.668;2022-11-18T12:48:34;11.13;;;7.40;;
5730;SDS011;2890;51.950;7.668;2022-11-18T12:51:06;11.27;;;8.13;;
5730;SDS011;2890;51.950;7.668;2022-11-18T12:53:36;11.77;;;7.70;;
5730;SDS011;2890;51.950;7.668;2022-11-18T12:56:17;11.43;;;7.33;;
5730;SDS011;2890;51.950;7.668;2022-11-18T12:58:47;16.37;;;9.50;;
5730;SDS011;2890;51.950;7.668;2022-11-18T13:01:15;10.73;;;7.40;;
5730;SDS011;2890;51.950;7.668;2022-11-18T13:03:43;10.60;;;7.43;;
5730;SDS011;2890;51.950;7.668;2022-11-18T13:06:12;13.97;;;8.77;;
5730;SDS011;2890;51.950;7.668;2022-11-18T13:08:42;17.07;;;8.80;;
5730;SDS011;2890;51.950;7.668;2022-11-18T13:11:16;26.17;;;11.17;;
5730;SDS011;2890;51.950;7.668;2022-11-18T13:14:01;12.43;;;8.10;;
5730;SDS011;2890;51.950;7.668;2022-11-18T13:16:46;11.80;;;7.63;;
5730;SDS011;2890;51.950;7.668;2022-11-18T13:19:31;12.37;;;7.97;;
5730;SDS011;2890;51.950;7.668;2022-11-18T13:21:59;11.43;;;7.63;;
5730;SDS011;2890;51.950;7.668;2022-11-18T13:24:46;9.90;;;7.57;;
5730;SDS011;2890;51.950;7.668;2022-11-18T13:27:23;10.60;;;7.03;;
5730;SDS011;2890;51.950;7.668;2022-11-18T13:29:54;13.67;;;8.07;;
5730;SDS011;2890;51.950;7.668;2022-11-18T13:32:27;10.67;;;8.33;;
5730;SDS011;2890;51.950;7.668;2022-11-18T13:34:55;13.70;;;8.80;;
5730;SDS011;2890;51.950;7.668;2022-11-18T13:37:24;12.40;;;8.60;;
5730;SDS011;2890;51.950;7.668;2022-11-18T13:39:52;13.00;;;8.40;;
5730;SDS011;2890;51.950;7.668;2022-11-18T13:42:20;13.93;;;8.43;;
5730;SDS011;2890;51.950;7.668;2022-11-18T13:44:54;13.40;;;9.03;;
5730;SDS011;2890;51.950;7.668;2022-11-18T13:47:25;13.43;;;8.67;;
5730;SDS011;2890;51.950;7.668;2022-11-18T13:49:54;12.10;;;8.10;;
5730;SDS011;2890;51.950;7.668;2022-11-18T13:52:24;11.07;;;7.17;;
5730;SDS011;2890;51.950;7.668;2022-11-18T13:54:53;11.43;;;7.97;;
5730;SDS011;2890;51.950;7.668;2022-11-18T13:57:22;13.87;;;8.43;;
5730;SDS011;2890;51.950;7.668;2022-11-18T13:59:51;14.43;;;9.27;;
5730;SDS011;2890;51.950;7.668;2022-11-18T14:02:19;13.10;;;8.40;;
5730;SDS011;2890;51.950;7.668;2022-11-18T14:04:48;11.50;;;8.37;;
5730;SDS011;2890;51.950;7.668;2022-11-18T14:07:22;12.50;;;8.43;;
5730;SDS011;2890;51.950;7.668;2022-11-18T14:09:53;10.60;;;8.40;;
5730;SDS011;2890;51.950;7.668;2022-11-18T14:12:21;10.90;;;8.20;;
5730;SDS011;2890;51.950;7.668;2022-11-18T14:14:49;11.67;;;8.47;;
5730;SDS011;2890;51.950;7.668;2022-11-18T14:17:18;13.27;;;8.90;;
5730;SDS011;2890;51.950;7.668;2022-11-18T14:19:46;10.83;;;8.97;;
5730;SDS011;2890;51.950;7.668;2022-11-18T14:22:14;11.70;;;8.00;;
5730;SDS011;2890;51.950;7.668;2022-11-18T14:24:42;12.33;;;8.00;;
5730;SDS011;2890;51.950;7.668;2022-11-18T14:29:52;12.70;;;9.00;;
5730;SDS011;2890;51.950;7.668;2022-11-18T14:32:21;17.77;;;10.40;;
5730;SDS011;2890;51.950;7.668;2022-11-18T14:34:55;13.20;;;9.03;;
5730;SDS011;2890;51.950;7.668;2022-11-18T14:37:23;14.10;;;9.63;;
5730;SDS011;2890;51.950;7.668;2022-11-18T14:39:52;17.10;;;10.37;;
5730;SDS011;2890;51.950;7.668;2022-11-18T14:42:20;13.63;;;9.60;;
5730;SDS011;2890;51.950;7.668;2022-11-18T14:44:47;9.00;;;6.97;;
5730;SDS011;2890;51.950;7.668;2022-11-18T14:47:18;11.47;;;7.87;;
5730;SDS011;2890;51.950;7.668;2022-11-18T14:49:48;10.97;;;8.07;;
5730;SDS011;2890;51.950;7.668;2022-11-18T14:52:15;10.10;;;7.47;;
5730;SDS011;2890;51.950;7.668;2022-11-18T14:54:42;11.00;;;7.43;;
5730;SDS011;2890;51.950;7.668;2022-11-18T14:57:10;14.23;;;8.10;;
5730;SDS011;2890;51.950;7.668;2022-11-18T14:59:38;10.97;;;7.90;;
5730;SDS011;2890;51.950;7.668;2022-11-18T15:02:05;10.40;;;7.80;;
5730;SDS011;2890;51.950;7.668;2022-11-18T15:04:38;11.33;;;7.83;;
5730;SDS011;2890;51.950;7.668;2022-11-18T15:07:07;10.60;;;8.13;;
5730;SDS011;2890;51.950;7.668;2022-11-18T15:09:35;12.70;;;8.47;;
5730;SDS011;2890;51.950;7.668;2022-11-18T15:12:02;13.07;;;8.37;;
5730;SDS011;2890;51.950;7.668;2022-11-18T15:14:29;12.83;;;8.47;;
5730;SDS011;2890;51.950;7.668;2022-11-18T15:16:57;12.70;;;8.33;;
5730;SDS011;2890;51.950;7.668;2022-11-18T15:19:24;13.40;;;9.13;;
5730;SDS011;2890;51.950;7.668;2022-11-18T15:21:51;13.23;;;9.43;;
5730;SDS011;2890;51.950;7.668;2022-11-18T15:24:19;13.63;;;8.63;;
5730;SDS011;2890;51.950;7.668;2022-11-18T15:26:46;10.10;;;7.57;;